ATH weather

Eleftherios Venizelos International Airport
Athens, Attica, Greece

Public forecast

Using degrees Celsius for public forecast. Weather courtesy of forecast.io.

METAR (pilot weather report)

Retrieved 2019/03/24 22:50 UTC (10 minutes ago):

LGAV 242250Z VRB03KT 9999 FEW030 09/M01 Q1018 NOSIG

TAF (pilot weather forecast)

Retrieved 2019/03/24 18:12 UTC (5 hours ago):

TAF TAF LGAV 241700Z 2418/2518 36013KT 9999 FEW030 TEMPO 2418/2503 01015G25KT